Sunday, November 19, 2017, 5:38 AM EST
Back to Local

KRDG, Reading Regional Airport

Location: Reading, PA, United States Lat: 40.367
Local Time: 5:38 AM EST (10:38 GMT) Lon: -75.967
Time Zone: US/Eastern Elev: 344 ft

Show me the last for .
Show Decoded

2017-11-19 05:18 METAR KRDG 191018Z AUTO 26022G37KT 10SM SCT027 BKN039 OVC070 14/11 A2925 RMK AO2
                 PK WND 25037/1009 WSHFT 0958 RAB04E18 P0000 T01440106 =
2017-11-19 04:54 METAR KRDG 190954Z AUTO 20017G23KT 10SM FEW022 BKN039 BKN047 14/13 A2923 RMK AO2
                 PK WND 19028/0908 SLP904 T01440128 =
2017-11-19 03:54 METAR KRDG 190854Z AUTO 21015G30KT 10SM BKN020 BKN026 14/13 A2921 RMK AO2 PK WND
                 20030/0847 RAE0755 SLP898 P0000 60015 T01440128 56035 =
2017-11-19 03:12 METAR KRDG 190812Z AUTO 20013G22KT 10SM BKN022 BKN026 OVC110 14/13 A2924 RMK AO2
                 RAE0755 P0000 T01440128 =
2017-11-19 02:54 METAR KRDG 190754Z AUTO 21013G24KT 10SM -RA FEW075 OVC100 14/13 A2925 RMK AO2 PK
                 WND 21034/0700 SLP910 P0005 T01390128 =
2017-11-19 01:54 METAR KRDG 190654Z AUTO 19019G30KT 10SM -RA OVC085 13/12 A2926 RMK AO2 PK WND
                 19030/0652 SLP915 P0010 T01330122 =
2017-11-19 00:54 METAR KRDG 190554Z 18004KT 10SM RA SCT055 OVC090 13/11 A2932 RMK AO2 SLP933
                 P0003 60007 T01280111 10128 20078 56035 =
2017-11-18 23:54 METAR KRDG 190454Z 17007KT 10SM -RA OVC100 13/10 A2935 RMK AO2 RAB0359 SLP943
                 P0003 T01280100 401281022 =
2017-11-18 22:54 METAR KRDG 190354Z 14003KT 10SM FEW070 BKN100 OVC120 10/08 A2938 RMK AO2 RAE36
                 SLP954 P0000 T01000083 =
2017-11-18 21:54 METAR KRDG 190254Z 19004KT 10SM -RA OVC100 08/08 A2942 RMK AO2 SLP969 P0001
                 60001 T00830078 58041 =
2017-11-18 20:54 METAR KRDG 190154Z 29003KT 10SM -RA BKN100 BKN120 08/08 A2948 RMK AO2 SLP988
                 P0000 T00830078 =
2017-11-18 19:54 METAR KRDG 190054Z VRB04KT 10SM -RA FEW075 OVC100 08/07 A2951 RMK AO2 RAB04
                 SLP998 P0000 T00830072 =
2017-11-18 18:54 METAR KRDG 182354Z 17006KT 5SM BR FEW060 OVC100 08/07 A2954 RMK AO2 RAB24E45
                 SLP010 P0000 60039 T00780072 10078 20067 58033 =
2017-11-18 18:01 METAR KRDG 182301Z 00000KT 9SM OVC060 07/07 A2957 RMK AO2 T00720072 =
2017-11-18 17:54 METAR KRDG 182254Z 00000KT 2 1/2SM BR OVC060 07/07 A2957 RMK AO2 SFC VIS 5 RAE18
                 SLP021 P0003 T00720072 =
2017-11-18 16:54 METAR KRDG 182154Z 00000KT 2 1/2SM R36/4500VP6000FT RA BR FEW042 BKN060 OVC080
                 07/07 A2961 RMK AO2 SLP034 P0013 T00670067 =
2017-11-18 16:18 METAR KRDG 182118Z 00000KT 2 1/2SM +RA BR FEW041 BKN060 OVC075 07/07 A2963 RMK
                 AO2 SFC VIS 3 P0008 T00670067 =
2017-11-18 15:54 METAR KRDG 182054Z AUTO 00000KT 4SM R36/6000VP6000FT RA BR FEW032 BKN050 OVC070
                 07/07 A2964 RMK AO2 SLP044 P0016 60023 T00670067 56033 =
2017-11-18 14:54 METAR KRDG 181954Z AUTO 16003KT 6SM -RA BR BKN060 BKN070 OVC085 07/07 A2966 RMK
                 AO2 SLP050 P0005 T00670067 =
2017-11-18 13:54 METAR KRDG 181854Z AUTO 14003KT 9SM -RA SCT016 BKN047 OVC055 07/07 A2968 RMK AO2
                 SLP056 P0002 T00720067 =
2017-11-18 12:54 METAR KRDG 181754Z AUTO 21004KT 8SM -RA OVC050 07/06 A2974 RMK AO2 SLP076 P0006
                 60017 T00670061 10067 21011 56042 =
2017-11-18 11:54 METAR KRDG 181654Z AUTO 09003KT 5SM RA BR BKN060 OVC080 06/06 A2976 RMK AO2
                 PRESFR SLP086 P0011 T00560056 =
2017-11-18 10:54 METAR KRDG 181554Z AUTO 16005KT 10SM -RA OVC090 06/03 A2981 RMK AO2 RAB31 SLP102
                 P0000 T00610028 =
2017-11-18 09:54 METAR KRDG 181454Z AUTO 00000KT 10SM CLR 04/01 A2986 RMK AO2 SLP119 T00440011
                 58020 =
2017-11-18 08:54 METAR KRDG 181354Z AUTO 01003KT 10SM CLR 01/M01 A2989 RMK AO2 SLP128 T00111006 =
2017-11-18 07:54 METAR KRDG 181254Z AUTO 34003KT 10SM CLR 00/M02 A2990 RMK AO2 SLP133 T00001017 =
2017-11-18 06:54 METAR KRDG 181154Z AUTO 00000KT 10SM CLR M01/M02 A2992 RMK AO2 SLP139 T10111017
                 11006 21022 58020 =
2017-11-18 05:54 METAR KRDG 181054Z AUTO 00000KT 10SM CLR M02/M02 A2995 RMK AO2 SLP149 T10171022
                 =

Support USWX by starting your Amazon purchase here.